Buoy 43528

sailwx.info

Track history (hours):
 
Tides and Currents Weather Stations Pressure Air Temp Water Temp Dewpoint Dewpoint Depression Visibility Wind Speed Wind Dir Waves Ship Positions

Drifting buoy 43528

Last reported at 2015-Jul-06 19:00 UTC. Time now 2015-Jul-06 19:59 UTC.
Position N 14°05' E 176°49'.

Water temperature 28.4 ° C

Date/timePositionNaut miles runAvg speedWind from/ knotsBaromVisibWave heightAir tempDewpointWater temp
2015-Jul-06 19:00N 14°05' E 176°49'2 0.4 28.4
2015-Jul-06 14:00N 14°03' E 176°51'2 0.4 28.4
2015-Jul-06 09:00N 14°01' E 176°51'4 0.5 28.4
2015-Jul-06 02:00N 13°58' E 176°53'0 0.0 28.6
2015-Jul-06 01:00N 13°58' E 176°53'4 0.5 28.6
2015-Jul-05 18:00N 13°56' E 176°56'0 0.1 28.3
2015-Jul-05 17:00N 13°56' E 176°56'1 0.4 28.3
2015-Jul-05 13:00N 13°55' E 176°57'5 0.7 28.4
2015-Jul-05 05:00N 13°50' E 176°58'9 0.6 28.7
2015-Jul-04 15:00N 13°41' E 176°59'1 0.7 28.3
2015-Jul-04 14:00N 13°40' E 176°59'3 0.6 28.3
2015-Jul-04 09:00N 13°37' E 176°60'0 0.3 28.4
2015-Jul-04 08:00N 13°37' E 176°60'6 0.5 28.4
2015-Jul-03 20:00N 13°32' E 177°04'3 0.7 28.3
2015-Jul-03 16:00N 13°31' E 177°06'1 0.3 28.3
2015-Jul-03 13:00N 13°31' E 177°07'1 0.4 28.3
2015-Jul-03 09:00N 13°30' E 177°08'1 1.1 28.4
2015-Jul-03 08:00N 13°29' E 177°09'2 0.9 28.4
2015-Jul-03 06:00N 13°28' E 177°10'2 0.5 -0.1
2015-Jul-03 02:00N 13°27' E 177°12'1 1.2 28.5
2015-Jul-03 01:00N 13°26' E 177°13'0 0.0 28.5
2015-Jul-03 00:00N 13°26' E 177°13'2 1.2 28.4
2015-Jul-02 22:00N 13°25' E 177°15'3 0.8 28.4
2015-Jul-02 18:00N 13°24' E 177°18'1 1.1 28.3
2015-Jul-02 17:00N 13°24' E 177°19'6 0.7 28.3
2015-Jul-02 08:00N 13°22' E 177°25'3 1.1 28.3
2015-Jul-02 05:00N 13°21' E 177°29'2 0.7 28.4
2015-Jul-02 02:00N 13°21' E 177°31'0 0.0 28.4
2015-Jul-02 01:00N 13°21' E 177°31'6 0.5 28.4
2015-Jul-01 13:00N 13°21' E 177°37'2 0.7 28.3
2015-Jul-01 10:00N 13°20' E 177°39'0 0.5 28.4
2015-Jul-01 09:00N 13°20' E 177°40'1 0.7 28.3
2015-Jul-01 08:00N 13°20' E 177°40'3 0.7 28.3
2015-Jul-01 03:00N 13°19' E 177°44'1 1.5 28.4
2015-Jul-01 02:00N 13°19' E 177°45'9 0.8 28.4
2015-Jun-30 14:00N 13°18' E 177°55'3 0.8 28.3
2015-Jun-30 10:00N 13°18' E 177°58'1 1.4 28.3
2015-Jun-30 09:00N 13°19' E 177°59'2 0.5 28.3
2015-Jun-30 06:00N 13°19' E 178°01'1 0.7 28.3
2015-Jun-30 04:00N 13°19' E 178°03'6 0.8 28.4
2015-Jun-29 20:00N 13°21' E 178°09'7 0.6 28.3
2015-Jun-29 09:00N 13°21' E 178°16'2 0.7 28.3
2015-Jun-29 06:00N 13°21' E 178°18'1 1.3 28.3
2015-Jun-29 05:00N 13°21' E 178°20'5 0.7 28.3
2015-Jun-28 21:00N 13°21' E 178°25'0 0.0 28.2
2015-Jun-28 20:00N 13°21' E 178°25'3 0.9 28.2
2015-Jun-28 17:00N 13°21' E 178°28'7 0.7 28.2
2015-Jun-28 06:00N 13°21' E 178°35'3 0.8 28.3
2015-Jun-28 02:00N 13°22' E 178°39'5 0.6 28.3
2015-Jun-27 17:00N 13°22' E 178°44'5 1.3 28.2
2015-Jun-27 13:00N 13°22' E 178°49'2 0.3 28.2
2015-Jun-27 06:00N 13°22' E 178°52'2 2.2 28.3
2015-Jun-27 05:00N 13°21' E 178°54'6 1.4 28.3
2015-Jun-27 01:00N 13°21' E 178°59'1 0.3 28.3
2015-Jun-26 20:00N 13°22' E 179°01'   28.2
Track history (hours):
 
Tides and Currents Weather Stations Pressure Air Temp Water Temp Dewpoint Dewpoint Depression Visibility Wind Speed Wind Dir Waves Ship Positions

Drifting buoy 43528

Last reported at 2015-Jul-06 19:00 UTC. Time now 2015-Jul-06 19:59 UTC.
Position N 14°05' E 176°49'.

Water temperature 28.4 ° C

Date/timePositionNaut miles runAvg speedWind from/ knotsBaromVisibWave heightAir tempDewpointWater temp
2015-Jul-06 19:00N 14°05' E 176°49'2 0.4 28.4
2015-Jul-06 14:00N 14°03' E 176°51'2 0.4 28.4
2015-Jul-06 09:00N 14°01' E 176°51'4 0.5 28.4
2015-Jul-06 02:00N 13°58' E 176°53'0 0.0 28.6
2015-Jul-06 01:00N 13°58' E 176°53'4 0.5 28.6
2015-Jul-05 18:00N 13°56' E 176°56'0 0.1 28.3
2015-Jul-05 17:00N 13°56' E 176°56'1 0.4 28.3
2015-Jul-05 13:00N 13°55' E 176°57'5 0.7 28.4
2015-Jul-05 05:00N 13°50' E 176°58'9 0.6 28.7
2015-Jul-04 15:00N 13°41' E 176°59'1 0.7 28.3
2015-Jul-04 14:00N 13°40' E 176°59'3 0.6 28.3
2015-Jul-04 09:00N 13°37' E 176°60'0 0.3 28.4
2015-Jul-04 08:00N 13°37' E 176°60'6 0.5 28.4
2015-Jul-03 20:00N 13°32' E 177°04'3 0.7 28.3
2015-Jul-03 16:00N 13°31' E 177°06'1 0.3 28.3
2015-Jul-03 13:00N 13°31' E 177°07'1 0.4 28.3
2015-Jul-03 09:00N 13°30' E 177°08'1 1.1 28.4
2015-Jul-03 08:00N 13°29' E 177°09'2 0.9 28.4
2015-Jul-03 06:00N 13°28' E 177°10'2 0.5 -0.1
2015-Jul-03 02:00N 13°27' E 177°12'1 1.2 28.5
2015-Jul-03 01:00N 13°26' E 177°13'0 0.0 28.5
2015-Jul-03 00:00N 13°26' E 177°13'2 1.2 28.4
2015-Jul-02 22:00N 13°25' E 177°15'3 0.8 28.4
2015-Jul-02 18:00N 13°24' E 177°18'1 1.1 28.3
2015-Jul-02 17:00N 13°24' E 177°19'6 0.7 28.3
2015-Jul-02 08:00N 13°22' E 177°25'3 1.1 28.3
2015-Jul-02 05:00N 13°21' E 177°29'2 0.7 28.4
2015-Jul-02 02:00N 13°21' E 177°31'0 0.0 28.4
2015-Jul-02 01:00N 13°21' E 177°31'6 0.5 28.4
2015-Jul-01 13:00N 13°21' E 177°37'2 0.7 28.3
2015-Jul-01 10:00N 13°20' E 177°39'0 0.5 28.4
2015-Jul-01 09:00N 13°20' E 177°40'1 0.7 28.3
2015-Jul-01 08:00N 13°20' E 177°40'3 0.7 28.3
2015-Jul-01 03:00N 13°19' E 177°44'1 1.5 28.4
2015-Jul-01 02:00N 13°19' E 177°45'9 0.8 28.4
2015-Jun-30 14:00N 13°18' E 177°55'3 0.8 28.3
2015-Jun-30 10:00N 13°18' E 177°58'1 1.4 28.3
2015-Jun-30 09:00N 13°19' E 177°59'2 0.5 28.3
2015-Jun-30 06:00N 13°19' E 178°01'1 0.7 28.3
2015-Jun-30 04:00N 13°19' E 178°03'6 0.8 28.4
2015-Jun-29 20:00N 13°21' E 178°09'7 0.6 28.3
2015-Jun-29 09:00N 13°21' E 178°16'2 0.7 28.3
2015-Jun-29 06:00N 13°21' E 178°18'1 1.3 28.3
2015-Jun-29 05:00N 13°21' E 178°20'5 0.7 28.3
2015-Jun-28 21:00N 13°21' E 178°25'0 0.0 28.2
2015-Jun-28 20:00N 13°21' E 178°25'3 0.9 28.2
2015-Jun-28 17:00N 13°21' E 178°28'7 0.7 28.2
2015-Jun-28 06:00N 13°21' E 178°35'3 0.8 28.3
2015-Jun-28 02:00N 13°22' E 178°39'5 0.6 28.3
2015-Jun-27 17:00N 13°22' E 178°44'5 1.3 28.2
2015-Jun-27 13:00N 13°22' E 178°49'2 0.3 28.2
2015-Jun-27 06:00N 13°22' E 178°52'2 2.2 28.3
2015-Jun-27 05:00N 13°21' E 178°54'6 1.4 28.3
2015-Jun-27 01:00N 13°21' E 178°59'1 0.3 28.3
2015-Jun-26 20:00N 13°22' E 179°01'   28.2

Dump ship's entire track history